createdAt,value
2023-05-09T00:00:33.989Z,9.03
2023-05-09T00:03:16.504Z,9.05
2023-05-09T00:05:47.396Z,9.04
2023-05-09T00:08:18.300Z,9.03
2023-05-09T00:10:50.267Z,9.01
2023-05-09T00:13:21.093Z,9.01
2023-05-09T00:15:54.080Z,9.03
2023-05-09T00:18:24.684Z,9.05
2023-05-09T00:20:55.630Z,9.01
2023-05-09T00:23:26.366Z,9.00
2023-05-09T00:25:57.062Z,9.00
2023-05-09T00:28:27.873Z,8.99
2023-05-09T00:30:58.629Z,8.98
2023-05-09T00:33:29.494Z,8.99
2023-05-09T00:36:00.264Z,8.99
2023-05-09T00:38:44.392Z,9.02
2023-05-09T00:41:15.182Z,9.04
2023-05-09T00:43:46.001Z,9.04
2023-05-09T00:46:16.685Z,9.04
2023-05-09T00:48:47.525Z,9.04
2023-05-09T00:51:18.350Z,9.06
2023-05-09T00:53:48.987Z,9.08
2023-05-09T00:56:19.563Z,9.08
2023-05-09T00:58:50.132Z,9.11
2023-05-09T01:01:21.199Z,9.11
2023-05-09T01:03:52.045Z,9.13
2023-05-09T01:06:24.216Z,9.15
2023-05-09T01:09:03.422Z,9.14
2023-05-09T01:11:36.237Z,9.12
2023-05-09T01:14:10.188Z,9.10
2023-05-09T01:16:42.645Z,9.10
2023-05-09T01:19:18.446Z,9.11
2023-05-09T01:21:49.130Z,9.11
2023-05-09T01:24:33.551Z,9.12
2023-05-09T01:27:11.715Z,9.12
2023-05-09T01:29:43.956Z,9.10
2023-05-09T01:32:16.061Z,9.09
2023-05-09T01:34:47.212Z,9.09
2023-05-09T01:37:17.948Z,9.08
2023-05-09T01:39:50.484Z,9.05
2023-05-09T01:42:21.985Z,9.04
2023-05-09T01:44:52.713Z,9.05
2023-05-09T01:47:23.542Z,9.06
2023-05-09T01:49:54.246Z,9.06
2023-05-09T01:52:25.770Z,9.07
2023-05-09T01:54:56.383Z,9.07
2023-05-09T01:57:26.909Z,9.08
2023-05-09T01:59:58.548Z,9.10
2023-05-09T02:02:29.441Z,9.10
2023-05-09T02:15:15.500Z,9.23
2023-05-09T02:17:46.734Z,9.21
2023-05-09T02:20:17.536Z,9.22
2023-05-09T02:22:48.191Z,9.20
2023-05-09T02:25:18.946Z,9.17
2023-05-09T02:27:49.922Z,9.17
2023-05-09T02:30:23.545Z,9.17
2023-05-09T02:32:55.069Z,9.17
2023-05-09T02:35:25.800Z,9.18
2023-05-09T02:37:56.766Z,9.17
2023-05-09T02:40:28.005Z,9.15
2023-05-09T02:42:58.817Z,9.13
2023-05-09T02:45:29.557Z,9.16
2023-05-09T02:48:00.330Z,9.19
2023-05-09T02:50:31.344Z,9.20
2023-05-09T02:53:02.064Z,9.16
2023-05-09T02:55:33.118Z,9.13
2023-05-09T02:58:13.244Z,9.13
2023-05-09T03:00:45.324Z,9.09
2023-05-09T03:03:17.977Z,9.06
2023-05-09T03:05:49.081Z,9.05
2023-05-09T03:08:19.801Z,9.05
2023-05-09T03:10:51.262Z,9.05
2023-05-09T03:13:22.132Z,9.05
2023-05-09T03:15:53.053Z,9.04
2023-05-09T03:18:23.726Z,9.06
2023-05-09T03:20:54.272Z,9.07
2023-05-09T03:23:24.887Z,9.07
2023-05-09T03:25:55.506Z,9.08
2023-05-09T03:28:26.108Z,9.13
2023-05-09T03:30:56.884Z,9.17
2023-05-09T03:33:27.586Z,9.19
2023-05-09T03:36:00.666Z,9.20
2023-05-09T03:38:31.326Z,9.23
2023-05-09T03:41:02.029Z,9.25
2023-05-09T03:43:32.591Z,9.24
2023-05-09T03:46:03.160Z,9.24
2023-05-09T03:48:33.947Z,9.24
2023-05-09T03:51:04.824Z,9.24
2023-05-09T03:53:35.503Z,9.26
2023-05-09T03:56:06.631Z,9.29
2023-05-09T03:58:37.224Z,9.33
2023-05-09T04:01:07.720Z,9.33
2023-05-09T04:03:38.724Z,9.34
2023-05-09T04:06:11.190Z,9.36
2023-05-09T04:08:41.854Z,9.40
2023-05-09T04:11:12.441Z,9.42
2023-05-09T04:13:43.044Z,9.44
2023-05-09T04:16:16.286Z,9.49
2023-05-09T04:18:56.264Z,9.55
2023-05-09T04:21:27.014Z,9.61
2023-05-09T04:23:58.541Z,9.66
2023-05-09T04:26:30.035Z,9.68
2023-05-09T04:29:00.726Z,9.71
2023-05-09T04:31:31.578Z,9.75
2023-05-09T04:34:06.649Z,9.77
2023-05-09T04:36:42.627Z,9.82
2023-05-09T04:39:13.323Z,9.86
2023-05-09T04:41:46.683Z,9.90
2023-05-09T04:44:17.526Z,9.91
2023-05-09T04:46:48.118Z,9.96
2023-05-09T04:49:18.946Z,10.03
2023-05-09T04:51:49.770Z,10.04
2023-05-09T04:54:21.423Z,10.01
2023-05-09T04:57:17.370Z,9.97
2023-05-09T04:59:49.772Z,9.98
2023-05-09T05:02:21.339Z,10.04
2023-05-09T05:04:54.254Z,10.05
2023-05-09T05:07:28.553Z,10.05
2023-05-09T05:09:59.488Z,10.08
2023-05-09T05:12:30.100Z,10.12
2023-05-09T05:15:02.872Z,10.15
2023-05-09T05:17:33.585Z,10.20
2023-05-09T05:20:06.683Z,10.26
2023-05-09T05:22:37.604Z,10.37
2023-05-09T05:25:09.424Z,10.43
2023-05-09T05:27:39.956Z,10.48
2023-05-09T05:30:11.513Z,10.52
2023-05-09T05:32:42.216Z,10.54
2023-05-09T05:35:13.176Z,10.59
2023-05-09T05:37:47.038Z,10.65
2023-05-09T05:40:19.311Z,10.70
2023-05-09T05:42:50.148Z,10.73
2023-05-09T05:45:22.960Z,10.78
2023-05-09T05:47:56.607Z,10.85
2023-05-09T05:50:27.419Z,10.93
2023-05-09T05:52:58.086Z,11.02
2023-05-09T05:55:29.094Z,11.12
2023-05-09T05:58:00.945Z,11.21
2023-05-09T06:00:31.866Z,11.34
2023-05-09T06:03:02.577Z,11.45
2023-05-09T06:05:33.580Z,11.48
2023-05-09T06:08:04.452Z,11.54
2023-05-09T06:10:35.021Z,11.61
2023-05-09T06:13:05.862Z,11.67
2023-05-09T06:15:38.713Z,11.75
2023-05-09T06:18:09.362Z,11.78
2023-05-09T06:20:40.242Z,11.81
2023-05-09T06:23:11.044Z,11.85
2023-05-09T06:25:41.924Z,11.94
2023-05-09T06:28:12.546Z,12.07
2023-05-09T06:30:43.296Z,12.22
2023-05-09T06:33:14.108Z,12.36
2023-05-09T06:35:45.124Z,12.48
2023-05-09T06:38:15.808Z,12.56
2023-05-09T06:40:46.597Z,12.61
2023-05-09T06:43:19.788Z,12.63
2023-05-09T06:45:52.519Z,12.68
2023-05-09T06:48:25.300Z,12.75
2023-05-09T06:50:55.905Z,12.87
2023-05-09T06:53:26.557Z,12.98
2023-05-09T06:55:57.153Z,13.06
2023-05-09T06:58:27.933Z,13.08
2023-05-09T07:00:58.632Z,13.14
2023-05-09T07:03:29.250Z,13.20
2023-05-09T07:06:00.094Z,13.23
2023-05-09T07:08:31.062Z,13.31
2023-05-09T07:11:01.739Z,13.22
2023-05-09T07:13:32.380Z,13.14
2023-05-09T07:16:03.254Z,13.23
2023-05-09T07:18:34.035Z,13.33
2023-05-09T07:21:05.006Z,13.38
2023-05-09T07:23:35.593Z,13.39
2023-05-09T07:26:06.413Z,13.38
2023-05-09T07:28:37.170Z,13.41
2023-05-09T07:31:09.483Z,13.50
2023-05-09T07:33:40.102Z,13.61
2023-05-09T07:36:13.222Z,13.74
2023-05-09T07:38:44.061Z,13.90
2023-05-09T07:41:14.743Z,14.12
2023-05-09T07:43:45.362Z,14.18
2023-05-09T07:46:16.025Z,14.17
2023-05-09T07:48:46.743Z,14.15
2023-05-09T07:51:17.493Z,14.16
2023-05-09T07:53:48.029Z,14.19
2023-05-09T07:56:18.569Z,14.26
2023-05-09T07:58:49.416Z,14.37
2023-05-09T08:01:19.986Z,14.35
2023-05-09T08:03:50.793Z,14.34
2023-05-09T08:06:21.697Z,14.31
2023-05-09T08:08:52.370Z,14.42
2023-05-09T08:11:23.041Z,14.51
2023-05-09T08:13:55.084Z,14.48
2023-05-09T08:16:30.257Z,14.46
2023-05-09T08:19:00.998Z,14.46
2023-05-09T08:21:32.162Z,14.46
2023-05-09T08:24:06.174Z,14.46
2023-05-09T08:26:36.647Z,14.47
2023-05-09T08:29:07.478Z,14.49
2023-05-09T08:31:38.206Z,14.50
2023-05-09T08:34:11.060Z,14.48
2023-05-09T08:36:42.370Z,14.50
2023-05-09T08:39:12.933Z,14.46
2023-05-09T08:41:43.961Z,14.49
2023-05-09T08:44:14.804Z,14.53
2023-05-09T08:46:47.330Z,14.46
2023-05-09T08:49:20.915Z,14.41
2023-05-09T08:51:51.645Z,14.33
2023-05-09T08:54:22.959Z,14.24
2023-05-09T08:56:53.595Z,14.15
2023-05-09T08:59:24.670Z,14.13
2023-05-09T09:01:56.021Z,14.13
2023-05-09T09:04:26.931Z,14.09
2023-05-09T09:06:57.466Z,14.09
2023-05-09T09:09:29.016Z,14.06
2023-05-09T09:11:59.805Z,14.01
2023-05-09T09:14:32.881Z,13.96
2023-05-09T09:17:07.486Z,13.93
2023-05-09T09:19:37.950Z,13.97
2023-05-09T09:22:09.447Z,14.04
2023-05-09T09:24:41.998Z,14.08
2023-05-09T09:27:15.205Z,14.08
2023-05-09T09:29:48.286Z,14.07
2023-05-09T09:32:23.480Z,14.00
2023-05-09T09:34:56.847Z,13.96
2023-05-09T09:37:32.779Z,13.93
2023-05-09T09:40:06.889Z,13.92
2023-05-09T09:42:49.721Z,13.93
2023-05-09T09:45:25.364Z,13.89
2023-05-09T09:47:56.563Z,13.80
2023-05-09T09:50:27.342Z,13.79
2023-05-09T09:53:00.030Z,13.79
2023-05-09T09:55:32.676Z,13.83
2023-05-09T09:58:04.442Z,13.88
2023-05-09T10:00:37.382Z,13.90
2023-05-09T10:03:13.944Z,13.96
2023-05-09T10:05:45.099Z,14.04
2023-05-09T10:08:15.926Z,14.04
2023-05-09T10:10:48.780Z,13.98
2023-05-09T10:13:24.276Z,13.92
2023-05-09T10:15:55.442Z,13.87
2023-05-09T10:18:27.251Z,13.81
2023-05-09T10:21:01.148Z,13.81
2023-05-09T10:23:32.702Z,13.82
2023-05-09T10:26:09.854Z,13.82
2023-05-09T10:28:44.478Z,13.77
2023-05-09T10:35:07.491Z,14.04
2023-05-09T10:37:39.466Z,14.08
2023-05-09T10:40:15.512Z,13.98
2023-05-09T10:42:46.841Z,13.92
2023-05-09T10:45:20.892Z,13.87
2023-05-09T10:47:53.504Z,13.81
2023-05-09T10:50:25.492Z,13.80
2023-05-09T10:53:11.608Z,13.87
2023-05-09T10:55:51.839Z,14.00
2023-05-09T10:58:23.897Z,14.15
2023-05-09T11:00:57.295Z,14.32
2023-05-09T11:03:29.928Z,14.49
2023-05-09T11:06:01.488Z,14.63
2023-05-09T11:08:33.340Z,14.67
2023-05-09T11:11:07.530Z,14.63
2023-05-09T11:13:40.506Z,14.56
2023-05-09T11:16:14.575Z,14.57
2023-05-09T11:18:54.939Z,14.65
2023-05-09T11:21:26.335Z,14.71
2023-05-09T11:23:58.128Z,14.76
2023-05-09T11:34:45.270Z,15.18
2023-05-09T11:37:17.630Z,15.03
2023-05-09T11:40:01.081Z,14.83
2023-05-09T11:42:31.973Z,14.63
2023-05-09T11:45:04.884Z,14.51
2023-05-09T11:47:35.790Z,14.48
2023-05-09T11:50:08.499Z,14.76
2023-05-09T11:52:39.321Z,15.22
2023-05-09T11:55:12.684Z,15.36
2023-05-09T11:57:44.355Z,15.61
2023-05-09T12:00:16.082Z,15.97
2023-05-09T12:02:47.821Z,16.18
2023-05-09T12:05:19.004Z,16.35
2023-05-09T12:07:49.707Z,16.57
2023-05-09T12:10:22.913Z,16.71
2023-05-09T12:12:55.668Z,16.74
2023-05-09T12:15:27.381Z,16.76
2023-05-09T12:18:05.369Z,16.81
2023-05-09T12:20:43.108Z,16.90
2023-05-09T12:23:14.667Z,16.96
2023-05-09T12:25:50.299Z,16.87
2023-05-09T12:28:21.286Z,16.79
2023-05-09T12:30:51.948Z,16.79
2023-05-09T12:33:22.594Z,16.89
2023-05-09T12:36:03.217Z,16.83
2023-05-09T12:38:34.661Z,16.69
2023-05-09T12:41:06.652Z,16.71
2023-05-09T12:43:38.163Z,16.74
2023-05-09T12:46:08.863Z,16.69
2023-05-09T12:48:39.846Z,16.83
2023-05-09T12:51:10.691Z,16.82
2023-05-09T12:53:42.285Z,16.83
2023-05-09T12:56:16.704Z,16.93
2023-05-09T12:58:51.264Z,17.24
2023-05-09T13:01:22.411Z,17.47
2023-05-09T13:04:01.579Z,17.58
2023-05-09T13:06:32.405Z,17.85
2023-05-09T13:09:37.848Z,18.16
2023-05-09T13:12:10.095Z,18.17
2023-05-09T13:14:41.725Z,18.28
2023-05-09T13:17:12.586Z,18.34
2023-05-09T13:19:43.216Z,18.55
2023-05-09T13:22:13.867Z,18.81
2023-05-09T13:24:44.758Z,19.04
2023-05-09T13:27:15.508Z,19.11
2023-05-09T13:29:46.237Z,19.16
2023-05-09T13:32:16.880Z,19.25
2023-05-09T13:34:47.778Z,19.24
2023-05-09T13:37:18.484Z,19.20
2023-05-09T13:39:49.234Z,19.25
2023-05-09T13:42:20.215Z,19.36
2023-05-09T13:44:50.900Z,19.44
2023-05-09T13:47:21.965Z,19.55
2023-05-09T13:49:53.096Z,19.58
2023-05-09T13:52:24.297Z,19.15
2023-05-09T13:54:55.231Z,18.91
2023-05-09T13:57:25.928Z,19.05
2023-05-09T13:59:56.655Z,19.07
2023-05-09T14:02:27.469Z,19.02
2023-05-09T14:04:59.088Z,18.90
2023-05-09T14:07:29.809Z,18.56
2023-05-09T14:10:10.925Z,18.24
2023-05-09T14:12:44.578Z,18.15
2023-05-09T14:15:16.443Z,18.28
2023-05-09T14:17:47.317Z,18.42
2023-05-09T14:20:18.266Z,18.45
2023-05-09T14:22:48.858Z,18.34
2023-05-09T14:25:19.733Z,18.18
2023-05-09T14:27:50.382Z,17.91
2023-05-09T14:30:21.174Z,17.46
2023-05-09T14:32:52.107Z,17.16
2023-05-09T14:35:23.295Z,16.97
2023-05-09T14:37:53.915Z,17.08
2023-05-09T14:40:24.668Z,16.91
2023-05-09T14:42:55.421Z,16.58
2023-05-09T14:45:26.550Z,16.26
2023-05-09T14:47:57.300Z,16.23
2023-05-09T14:50:28.104Z,16.36
2023-05-09T14:52:59.966Z,16.55
2023-05-09T14:55:31.481Z,16.58
2023-05-09T14:58:02.700Z,16.60
2023-05-09T15:00:34.263Z,16.52
2023-05-09T15:03:05.052Z,16.36
2023-05-09T15:05:35.869Z,16.12
2023-05-09T15:08:06.967Z,15.80
2023-05-09T15:10:37.690Z,15.44
2023-05-09T15:13:08.325Z,15.24
2023-05-09T15:15:40.715Z,15.05
2023-05-09T15:18:13.418Z,14.85
2023-05-09T15:20:44.090Z,14.64
2023-05-09T15:23:14.889Z,14.49
2023-05-09T15:25:46.430Z,14.38
2023-05-09T15:28:17.073Z,14.36
2023-05-09T15:30:48.540Z,14.39
2023-05-09T15:33:19.432Z,14.42
2023-05-09T15:35:50.262Z,14.36
2023-05-09T15:38:20.967Z,14.30
2023-05-09T15:40:51.948Z,14.27
2023-05-09T15:43:22.863Z,14.21
2023-05-09T15:46:11.124Z,14.21
2023-05-09T15:48:41.888Z,14.16
2023-05-09T15:51:13.994Z,14.11
2023-05-09T15:53:44.961Z,14.09
2023-05-09T15:56:15.787Z,13.99
2023-05-09T15:58:46.505Z,13.85
2023-05-09T16:01:17.438Z,13.73
2023-05-09T16:03:48.548Z,13.69
2023-05-09T16:06:19.509Z,13.64
2023-05-09T16:08:50.344Z,13.62
2023-05-09T16:11:21.806Z,13.60
2023-05-09T16:13:52.671Z,13.60
2023-05-09T16:16:23.667Z,13.57
2023-05-09T16:18:54.460Z,13.53
2023-05-09T16:21:29.282Z,13.52
2023-05-09T16:24:01.492Z,13.50
2023-05-09T16:26:32.523Z,13.51
2023-05-09T16:29:03.843Z,13.50
2023-05-09T16:31:35.670Z,13.46
2023-05-09T16:34:07.345Z,13.42
2023-05-09T16:36:38.431Z,13.42
2023-05-09T16:39:08.943Z,13.39
2023-05-09T16:41:39.664Z,13.34
2023-05-09T16:44:10.371Z,13.33
2023-05-09T16:46:43.975Z,13.34
2023-05-09T16:49:37.864Z,13.34
2023-05-09T16:52:09.732Z,13.33
2023-05-09T16:55:00.901Z,13.28
2023-05-09T16:57:31.914Z,13.25
2023-05-09T17:00:02.620Z,13.23
2023-05-09T17:02:33.677Z,13.24
2023-05-09T17:05:04.980Z,13.27
2023-05-09T17:07:35.669Z,13.27
2023-05-09T17:10:06.762Z,13.27
2023-05-09T17:12:38.991Z,13.25
2023-05-09T17:15:11.837Z,13.21
2023-05-09T17:17:42.706Z,13.15
2023-05-09T17:20:14.001Z,13.11
2023-05-09T17:22:50.319Z,13.04
2023-05-09T17:25:21.465Z,12.99
2023-05-09T17:27:55.157Z,12.96
2023-05-09T17:30:31.432Z,12.94
2023-05-09T17:33:07.186Z,12.93
2023-05-09T17:35:39.638Z,12.92
2023-05-09T17:38:16.100Z,12.85
2023-05-09T17:40:51.159Z,12.77
2023-05-09T17:43:26.822Z,12.66
2023-05-09T17:45:57.690Z,12.64
2023-05-09T17:48:38.847Z,12.60
2023-05-09T17:51:12.536Z,12.56
2023-05-09T17:53:47.107Z,12.53
2023-05-09T17:56:18.712Z,12.51
2023-05-09T17:58:53.263Z,12.49
2023-05-09T18:01:26.800Z,12.47
2023-05-09T18:03:57.907Z,12.42
2023-05-09T18:06:29.058Z,12.40
2023-05-09T18:08:59.833Z,12.38
2023-05-09T18:11:30.761Z,12.35
2023-05-09T18:14:01.615Z,12.33
2023-05-09T18:16:33.788Z,12.30
2023-05-09T18:19:04.816Z,12.30
2023-05-09T18:21:39.476Z,12.32
2023-05-09T18:24:10.678Z,12.35
2023-05-09T18:26:45.089Z,12.37
2023-05-09T18:29:18.002Z,12.37
2023-05-09T18:31:49.143Z,12.35
2023-05-09T18:34:20.244Z,12.33
2023-05-09T18:36:52.976Z,12.28
2023-05-09T18:39:23.850Z,12.27
2023-05-09T18:41:54.837Z,12.26
2023-05-09T18:44:25.481Z,12.23
2023-05-09T18:47:00.599Z,12.22
2023-05-09T18:49:31.713Z,12.20
2023-05-09T18:52:02.619Z,12.17
2023-05-09T18:54:35.785Z,12.15
2023-05-09T18:57:06.728Z,12.11
2023-05-09T18:59:39.727Z,12.07
2023-05-09T19:02:10.313Z,12.06
2023-05-09T19:04:40.970Z,12.03
2023-05-09T19:07:15.043Z,11.98
2023-05-09T19:09:47.818Z,11.96
2023-05-09T19:12:22.496Z,11.93
2023-05-09T19:14:57.556Z,11.91
2023-05-09T19:17:28.267Z,11.90
2023-05-09T19:19:59.539Z,11.89
2023-05-09T19:22:30.252Z,11.85
2023-05-09T19:25:02.575Z,11.85
2023-05-09T19:27:33.428Z,11.85
2023-05-09T19:30:04.561Z,11.85
2023-05-09T19:32:39.545Z,11.85
2023-05-09T19:35:12.855Z,11.87
2023-05-09T19:37:46.549Z,11.85
2023-05-09T19:40:17.574Z,11.83
2023-05-09T19:42:48.409Z,11.82
2023-05-09T19:45:19.104Z,11.83
2023-05-09T19:47:50.021Z,11.84
2023-05-09T19:50:21.116Z,11.82
2023-05-09T19:52:53.174Z,11.75
2023-05-09T19:55:23.962Z,11.74
2023-05-09T19:57:55.825Z,11.73
2023-05-09T20:00:26.970Z,11.71
2023-05-09T20:02:57.984Z,11.68
2023-05-09T20:05:28.720Z,11.65
2023-05-09T20:07:59.303Z,11.58
2023-05-09T20:10:30.990Z,11.56
2023-05-09T20:13:02.739Z,11.54
2023-05-09T20:15:33.569Z,11.49
2023-05-09T20:18:08.489Z,11.46
2023-05-09T20:20:39.483Z,11.40
2023-05-09T20:23:12.851Z,11.40
2023-05-09T20:25:43.681Z,11.39
2023-05-09T20:28:22.310Z,11.40
2023-05-09T20:30:53.090Z,11.41
2023-05-09T20:33:23.719Z,11.41
2023-05-09T20:35:54.508Z,11.41
2023-05-09T20:38:25.238Z,11.41
2023-05-09T20:40:55.979Z,11.41
2023-05-09T20:43:26.701Z,11.39
2023-05-09T20:45:57.533Z,11.40
2023-05-09T20:48:28.271Z,11.40
2023-05-09T20:50:58.984Z,11.39
2023-05-09T20:53:32.570Z,11.40
2023-05-09T20:56:03.396Z,11.38
2023-05-09T20:58:35.235Z,11.38
2023-05-09T21:01:06.100Z,11.39
2023-05-09T21:03:39.521Z,11.41
2023-05-09T21:06:11.160Z,11.42
2023-05-09T21:08:42.146Z,11.43
2023-05-09T21:11:13.317Z,11.43
2023-05-09T21:13:44.142Z,11.42
2023-05-09T21:16:14.773Z,11.40
2023-05-09T21:18:45.635Z,11.36
2023-05-09T21:21:16.507Z,11.34
2023-05-09T21:23:47.413Z,11.32
2023-05-09T21:26:17.990Z,11.31
2023-05-09T21:28:48.622Z,11.29
2023-05-09T21:31:19.479Z,11.30
2023-05-09T21:33:50.115Z,11.31
2023-05-09T21:36:20.948Z,11.33
2023-05-09T21:38:51.910Z,11.33
2023-05-09T21:41:23.174Z,11.34
2023-05-09T21:43:54.602Z,11.34
2023-05-09T21:46:25.477Z,11.30
2023-05-09T21:48:56.262Z,11.28
2023-05-09T21:51:27.021Z,11.23
2023-05-09T21:53:57.654Z,11.23
2023-05-09T21:56:28.327Z,11.21
2023-05-09T21:58:59.063Z,11.17
2023-05-09T22:01:29.845Z,11.15
2023-05-09T22:04:00.782Z,11.14
2023-05-09T22:06:31.739Z,11.12
2023-05-09T22:09:02.487Z,11.13
2023-05-09T22:11:33.885Z,11.14
2023-05-09T22:14:04.659Z,11.14
2023-05-09T22:16:35.477Z,11.16
2023-05-09T22:19:06.204Z,11.16
2023-05-09T22:21:36.923Z,11.15
2023-05-09T22:24:08.715Z,11.17
2023-05-09T22:26:39.476Z,11.17
2023-05-09T22:29:10.107Z,11.14
2023-05-09T22:31:41.091Z,11.12
2023-05-09T22:34:11.888Z,11.11
2023-05-09T22:36:42.573Z,11.12
2023-05-09T22:39:14.280Z,11.09
2023-05-09T22:41:45.020Z,11.06
2023-05-09T22:44:15.735Z,11.04
2023-05-09T22:46:46.471Z,11.06
2023-05-09T22:49:17.593Z,11.04
2023-05-09T22:51:48.247Z,11.01
2023-05-09T22:54:21.437Z,10.99
2023-05-09T22:56:52.321Z,10.98
2023-05-09T22:59:23.324Z,10.98
2023-05-09T23:01:54.265Z,10.99
2023-05-09T23:04:25.158Z,10.99
2023-05-09T23:06:55.864Z,10.96
2023-05-09T23:09:26.980Z,10.92
2023-05-09T23:11:57.902Z,10.92
2023-05-09T23:14:28.601Z,10.91
2023-05-09T23:16:59.218Z,10.86
2023-05-09T23:19:30.038Z,10.80
2023-05-09T23:22:00.590Z,10.75
2023-05-09T23:24:31.441Z,10.70
2023-05-09T23:27:04.818Z,10.67
2023-05-09T23:29:35.667Z,10.66
2023-05-09T23:32:06.515Z,10.63
2023-05-09T23:34:37.344Z,10.64
2023-05-09T23:37:08.444Z,10.67
2023-05-09T23:39:39.204Z,10.70
2023-05-09T23:42:10.002Z,10.70
2023-05-09T23:44:40.811Z,10.69
2023-05-09T23:47:11.508Z,10.70
2023-05-09T23:49:42.521Z,10.70
2023-05-09T23:52:13.523Z,10.73
2023-05-09T23:54:44.256Z,10.76
2023-05-09T23:57:14.923Z,10.78
2023-05-09T23:59:45.768Z,10.77
